»·PEaware :: N3913X KDLO-KEMT

N3913X :: KDLO-KEMT

FLIGHT INFORMATION

Flight Status: Arrived
Operator: Privately registered:
United States
More flights under this callsign
Pilot: Eduardo Elias G. (24838)
Aircraft: PIPER PA-28R-201 ARROW
(P28R)
More flights by this aircraft type
Origin: KDLO Delano Mun
United States
Destination: KEMT El Monte
United States
More flights between these airports :: More routes between these airports
Route: +
File this flight plan on PilotEdge
Remarks:
Altitude:
(Current/Filed)
9,500ft
Speed:
(Current/Filed)
140kts
Departed: 24-Sep-20 10:57 AM
Arrived: 24-Sep-20 11:54 AM
Distance/Time
Traveled:
116nm/0:57
Distance/Time
To Go:
Arrived

Flight Plot

Page will automatically refresh every two minutes.


Map Options




Map Legend


Flown Route
Filed Route
Departure Airport
Arrival Airport
Navaid (VOR, NDB)
Fix

Horizontal Profiles

Position Reports

Time Latitude Longitude Heading Altitude Ground
Speed
24-Sep-20 10:34 35.745951 -119.238896 339 317ft 0kts
24-Sep-20 10:35 35.745951 -119.238896 339 317ft 0kts
24-Sep-20 10:36 35.745951 -119.238896 339 317ft 0kts
24-Sep-20 10:37 35.745951 -119.238896 339 317ft 0kts
24-Sep-20 10:38 35.745951 -119.238896 339 317ft 0kts
24-Sep-20 10:39 35.745951 -119.238896 339 317ft 0kts
24-Sep-20 10:40 35.745951 -119.238896 339 317ft 0kts
24-Sep-20 10:41 35.745951 -119.238896 339 317ft 0kts
24-Sep-20 10:42 35.745951 -119.238896 339 317ft 0kts
24-Sep-20 10:43 35.745951 -119.238896 339 317ft 0kts
24-Sep-20 10:44 35.745951 -119.238896 339 317ft 0kts
24-Sep-20 10:45 35.745951 -119.238896 339 317ft 0kts
24-Sep-20 10:46 35.745951 -119.238896 339 317ft 0kts
24-Sep-20 10:47 35.745951 -119.238896 339 317ft 0kts
24-Sep-20 10:48 35.745951 -119.238896 339 317ft 0kts
24-Sep-20 10:49 35.746007 -119.238914 353 317ft 2kts
24-Sep-20 10:50 35.744506 -119.237725 156 317ft 10kts
24-Sep-20 10:51 35.741249 -119.236151 158 317ft 13kts
24-Sep-20 10:52 35.738661 -119.234173 111 317ft 0kts
24-Sep-20 10:53 35.738661 -119.234173 111 317ft 0kts
24-Sep-20 10:54 35.738643 -119.234117 111 317ft 0kts
24-Sep-20 10:55 35.738466 -119.233185 62 317ft 3kts
24-Sep-20 10:56 35.754006 -119.240092 341 774ft 99kts
24-Sep-20 10:57 35.761826 -119.266558 253 1829ft 106kts
24-Sep-20 10:58 35.736480 -119.267275 148 2486ft 113kts
24-Sep-20 10:59 35.708842 -119.249526 159 3164ft 113kts
24-Sep-20 11:00 35.677923 -119.242397 165 3778ft 113kts
24-Sep-20 11:01 35.646661 -119.234761 163 4353ft 114kts
24-Sep-20 11:02 35.618155 -119.217094 140 4894ft 114kts
24-Sep-20 11:03 35.598004 -119.200976 148 5277ft 114kts
24-Sep-20 11:04 35.570761 -119.180114 147 5747ft 114kts
24-Sep-20 11:05 35.543390 -119.159137 147 6189ft 114kts
24-Sep-20 11:06 35.515913 -119.138139 147 6857ft 115kts
24-Sep-20 11:07 35.488130 -119.116938 147 7514ft 117kts
24-Sep-20 11:08 35.460364 -119.095773 147 8141ft 118kts
24-Sep-20 11:09 35.432281 -119.074383 147 8732ft 119kts
24-Sep-20 11:10 35.404055 -119.052884 148 9278ft 119kts
24-Sep-20 11:11 35.374607 -119.030236 148 9495ft 136kts
24-Sep-20 11:12 35.343713 -119.006572 148 9466ft 138kts
24-Sep-20 11:13 35.322790 -118.990603 148 9459ft 138kts
24-Sep-20 11:14 35.290042 -118.965677 148 9436ft 139kts
24-Sep-20 11:15 35.257281 -118.940867 148 9421ft 139kts
24-Sep-20 11:16 35.224177 -118.915889 148 9429ft 138kts
24-Sep-20 11:17 35.191123 -118.891041 148 9423ft 138kts
24-Sep-20 11:18 35.158275 -118.866439 148 9424ft 139kts
24-Sep-20 11:19 35.125303 -118.841835 149 9456ft 138kts
24-Sep-20 11:20 35.091337 -118.820182 160 9496ft 137kts
24-Sep-20 11:21 35.055361 -118.803836 160 9555ft 136kts
24-Sep-20 11:22 35.019632 -118.787680 160 9610ft 137kts
24-Sep-20 11:23 34.983799 -118.771430 160 9663ft 137kts
24-Sep-20 11:24 34.947040 -118.754922 160 9547ft 140kts
24-Sep-20 11:25 34.909895 -118.738489 160 9437ft 141kts
24-Sep-20 11:26 34.872974 -118.722268 160 9352ft 141kts
24-Sep-20 11:27 34.835717 -118.706014 160 9238ft 142kts
24-Sep-20 11:28 34.798209 -118.689783 161 9093ft 143kts
24-Sep-20 11:29 34.759919 -118.673365 161 8909ft 143kts
24-Sep-20 11:30 34.722148 -118.657276 161 8767ft 142kts
24-Sep-20 11:31 34.684549 -118.641347 161 8594ft 143kts
24-Sep-20 11:32 34.646826 -118.625499 161 8461ft 143kts
24-Sep-20 11:33 34.609362 -118.609882 161 8354ft 143kts
24-Sep-20 11:34 34.572811 -118.591540 156 8251ft 143kts
24-Sep-20 11:35 34.536506 -118.572201 156 8160ft 142kts
24-Sep-20 11:36 34.499861 -118.552813 156 7929ft 145kts
24-Sep-20 11:37 34.462715 -118.533281 157 7639ft 144kts
24-Sep-20 11:38 34.425789 -118.513850 155 7363ft 144kts
24-Sep-20 11:39 34.392771 -118.487290 140 7297ft 140kts
24-Sep-20 11:40 34.365173 -118.453481 127 7256ft 141kts
24-Sep-20 11:41 34.340293 -118.416675 123 7222ft 141kts
24-Sep-20 11:42 34.316478 -118.377200 126 6879ft 148kts
24-Sep-20 11:43 34.293289 -118.335282 124 6468ft 149kts
24-Sep-20 11:44 34.270216 -118.293709 124 6057ft 150kts
24-Sep-20 11:45 34.245376 -118.253089 128 5612ft 149kts
24-Sep-20 11:46 34.222081 -118.212017 121 5214ft 148kts
24-Sep-20 11:47 34.201279 -118.168604 121 4646ft 153kts
24-Sep-20 11:48 34.177711 -118.126378 126 4052ft 149kts
24-Sep-20 11:49 34.151024 -118.088587 128 3351ft 140kts
24-Sep-20 11:50 34.130705 -118.052910 121 2546ft 117kts
24-Sep-20 11:51 34.113650 -118.027254 156 1208ft 92kts
24-Sep-20 11:52 34.091123 -118.031839 203 343ft 78kts
24-Sep-20 11:53 34.085340 -118.034599 139 296ft 0kts
24-Sep-20 11:54 34.084391 -118.034467 23 296ft 0kts
24-Sep-20 11:55 34.084391 -118.034467 23 296ft 0kts

Navigation Log

Ident Type
Flight plan parsing failed, navigation log unavailable